sensor_id;sensor_type;location;lat;lon;timestamp;temperature;humidity
19493;DHT22;9887;54.366;10.958;2023-11-21T00:00:37;8.50;99.90
19493;DHT22;9887;54.366;10.958;2023-11-21T00:03:05;8.60;99.90
19493;DHT22;9887;54.366;10.958;2023-11-21T00:05:36;8.50;99.90
19493;DHT22;9887;54.366;10.958;2023-11-21T00:08:04;8.50;99.90
19493;DHT22;9887;54.366;10.958;2023-11-21T00:10:32;8.50;99.90
19493;DHT22;9887;54.366;10.958;2023-11-21T00:13:00;8.50;99.90
19493;DHT22;9887;54.366;10.958;2023-11-21T00:15:29;8.50;99.90
19493;DHT22;9887;54.366;10.958;2023-11-21T00:17:57;8.50;99.90
19493;DHT22;9887;54.366;10.958;2023-11-21T00:20:25;8.50;99.90
19493;DHT22;9887;54.366;10.958;2023-11-21T00:22:54;8.50;99.90
19493;DHT22;9887;54.366;10.958;2023-11-21T00:25:22;8.50;99.90
19493;DHT22;9887;54.366;10.958;2023-11-21T00:27:49;8.50;99.90
19493;DHT22;9887;54.366;10.958;2023-11-21T00:30:17;8.50;99.90
19493;DHT22;9887;54.366;10.958;2023-11-21T00:32:47;8.50;99.90
19493;DHT22;9887;54.366;10.958;2023-11-21T00:35:15;8.50;99.90
19493;DHT22;9887;54.366;10.958;2023-11-21T00:37:43;8.50;99.90
19493;DHT22;9887;54.366;10.958;2023-11-21T00:40:13;8.50;99.90
19493;DHT22;9887;54.366;10.958;2023-11-21T00:42:42;8.50;99.90
19493;DHT22;9887;54.366;10.958;2023-11-21T00:45:11;8.50;99.90
19493;DHT22;9887;54.366;10.958;2023-11-21T00:47:39;8.50;99.90
19493;DHT22;9887;54.366;10.958;2023-11-21T00:50:08;8.50;99.90
19493;DHT22;9887;54.366;10.958;2023-11-21T00:52:36;8.50;99.90
19493;DHT22;9887;54.366;10.958;2023-11-21T00:55:05;8.50;99.90
19493;DHT22;9887;54.366;10.958;2023-11-21T00:57:36;8.50;99.90
19493;DHT22;9887;54.366;10.958;2023-11-21T01:00:05;8.50;99.90
19493;DHT22;9887;54.366;10.958;2023-11-21T01:02:35;8.50;99.90
19493;DHT22;9887;54.366;10.958;2023-11-21T01:05:04;8.50;99.90
19493;DHT22;9887;54.366;10.958;2023-11-21T01:07:34;8.50;99.90
19493;DHT22;9887;54.366;10.958;2023-11-21T01:10:03;8.50;99.90
19493;DHT22;9887;54.366;10.958;2023-11-21T01:12:36;8.50;99.90
19493;DHT22;9887;54.366;10.958;2023-11-21T01:15:05;8.50;99.90
19493;DHT22;9887;54.366;10.958;2023-11-21T01:17:35;8.50;99.90
19493;DHT22;9887;54.366;10.958;2023-11-21T01:20:04;8.50;99.90
19493;DHT22;9887;54.366;10.958;2023-11-21T01:22:38;8.50;99.90
19493;DHT22;9887;54.366;10.958;2023-11-21T01:25:06;8.50;99.90
19493;DHT22;9887;54.366;10.958;2023-11-21T01:27:35;8.50;99.90
19493;DHT22;9887;54.366;10.958;2023-11-21T01:30:05;8.50;99.90
19493;DHT22;9887;54.366;10.958;2023-11-21T01:32:34;8.50;99.90
19493;DHT22;9887;54.366;10.958;2023-11-21T01:35:03;8.50;99.90
19493;DHT22;9887;54.366;10.958;2023-11-21T01:37:33;8.50;99.90
19493;DHT22;9887;54.366;10.958;2023-11-21T01:40:00;8.50;99.90
19493;DHT22;9887;54.366;10.958;2023-11-21T01:42:29;8.50;99.90
19493;DHT22;9887;54.366;10.958;2023-11-21T01:44:58;8.50;99.90
19493;DHT22;9887;54.366;10.958;2023-11-21T01:47:26;8.50;99.90
19493;DHT22;9887;54.366;10.958;2023-11-21T01:49:54;8.50;99.90
19493;DHT22;9887;54.366;10.958;2023-11-21T01:52:22;8.50;99.90
19493;DHT22;9887;54.366;10.958;2023-11-21T01:54:51;8.50;99.90
19493;DHT22;9887;54.366;10.958;2023-11-21T01:57:20;8.50;99.90
19493;DHT22;9887;54.366;10.958;2023-11-21T01:59:49;8.50;99.90
19493;DHT22;9887;54.366;10.958;2023-11-21T02:02:17;8.50;99.90
19493;DHT22;9887;54.366;10.958;2023-11-21T02:04:45;8.50;99.90
19493;DHT22;9887;54.366;10.958;2023-11-21T02:07:13;8.40;99.90
19493;DHT22;9887;54.366;10.958;2023-11-21T02:09:41;8.40;99.90
19493;DHT22;9887;54.366;10.958;2023-11-21T02:12:10;8.40;99.90
19493;DHT22;9887;54.366;10.958;2023-11-21T02:14:38;8.40;99.90
19493;DHT22;9887;54.366;10.958;2023-11-21T02:17:06;8.40;99.90
19493;DHT22;9887;54.366;10.958;2023-11-21T02:19:35;8.40;99.90
19493;DHT22;9887;54.366;10.958;2023-11-21T02:22:04;8.40;99.90
19493;DHT22;9887;54.366;10.958;2023-11-21T02:24:34;8.40;99.90
19493;DHT22;9887;54.366;10.958;2023-11-21T02:27:03;8.40;99.90
19493;DHT22;9887;54.366;10.958;2023-11-21T02:32:45;8.40;99.90
19493;DHT22;9887;54.366;10.958;2023-11-21T02:35:15;8.40;99.90
19493;DHT22;9887;54.366;10.958;2023-11-21T02:37:43;8.40;99.90
19493;DHT22;9887;54.366;10.958;2023-11-21T02:40:13;8.40;99.90
19493;DHT22;9887;54.366;10.958;2023-11-21T02:42:44;8.40;99.90
19493;DHT22;9887;54.366;10.958;2023-11-21T02:45:15;8.40;99.90
19493;DHT22;9887;54.366;10.958;2023-11-21T02:47:44;8.30;99.90
19493;DHT22;9887;54.366;10.958;2023-11-21T02:50:12;8.40;99.90
19493;DHT22;9887;54.366;10.958;2023-11-21T02:52:40;8.40;99.90
19493;DHT22;9887;54.366;10.958;2023-11-21T02:55:08;8.30;99.90
19493;DHT22;9887;54.366;10.958;2023-11-21T02:57:37;8.30;99.90
19493;DHT22;9887;54.366;10.958;2023-11-21T03:00:06;8.30;99.90
19493;DHT22;9887;54.366;10.958;2023-11-21T03:02:35;8.30;99.90
19493;DHT22;9887;54.366;10.958;2023-11-21T03:05:07;8.30;99.90
19493;DHT22;9887;54.366;10.958;2023-11-21T03:07:37;8.30;99.90
19493;DHT22;9887;54.366;10.958;2023-11-21T03:10:07;8.30;99.90
19493;DHT22;9887;54.366;10.958;2023-11-21T03:12:37;8.30;99.90
19493;DHT22;9887;54.366;10.958;2023-11-21T03:15:06;8.30;99.90
19493;DHT22;9887;54.366;10.958;2023-11-21T03:17:35;8.30;99.90
19493;DHT22;9887;54.366;10.958;2023-11-21T03:20:05;8.30;99.90
19493;DHT22;9887;54.366;10.958;2023-11-21T03:22:37;8.30;99.90
19493;DHT22;9887;54.366;10.958;2023-11-21T03:25:06;8.30;99.90
19493;DHT22;9887;54.366;10.958;2023-11-21T03:27:38;8.30;99.90
19493;DHT22;9887;54.366;10.958;2023-11-21T03:30:09;8.20;99.90
19493;DHT22;9887;54.366;10.958;2023-11-21T03:32:37;8.30;99.90
19493;DHT22;9887;54.366;10.958;2023-11-21T03:35:06;8.20;99.90
19493;DHT22;9887;54.366;10.958;2023-11-21T03:37:34;8.20;99.90
19493;DHT22;9887;54.366;10.958;2023-11-21T03:40:03;8.20;99.90
19493;DHT22;9887;54.366;10.958;2023-11-21T03:42:31;8.20;99.90
19493;DHT22;9887;54.366;10.958;2023-11-21T03:45:00;8.20;99.90
19493;DHT22;9887;54.366;10.958;2023-11-21T03:47:30;8.20;99.90
19493;DHT22;9887;54.366;10.958;2023-11-21T03:49:58;8.20;99.90
19493;DHT22;9887;54.366;10.958;2023-11-21T03:52:26;8.20;99.90
19493;DHT22;9887;54.366;10.958;2023-11-21T03:54:55;8.20;99.90
19493;DHT22;9887;54.366;10.958;2023-11-21T03:57:23;8.20;99.90
19493;DHT22;9887;54.366;10.958;2023-11-21T03:59:50;8.20;99.90
19493;DHT22;9887;54.366;10.958;2023-11-21T04:02:20;8.20;99.90
19493;DHT22;9887;54.366;10.958;2023-11-21T04:04:48;8.20;99.90
19493;DHT22;9887;54.366;10.958;2023-11-21T04:07:16;8.20;99.90
19493;DHT22;9887;54.366;10.958;2023-11-21T04:09:44;8.20;99.90
19493;DHT22;9887;54.366;10.958;2023-11-21T04:12:12;8.10;99.90
19493;DHT22;9887;54.366;10.958;2023-11-21T04:14:40;8.20;99.90
19493;DHT22;9887;54.366;10.958;2023-11-21T04:17:07;8.20;99.90
19493;DHT22;9887;54.366;10.958;2023-11-21T04:19:37;8.20;99.90
19493;DHT22;9887;54.366;10.958;2023-11-21T04:22:05;8.20;99.90
19493;DHT22;9887;54.366;10.958;2023-11-21T04:24:33;8.10;99.90
19493;DHT22;9887;54.366;10.958;2023-11-21T04:27:01;8.10;99.90
19493;DHT22;9887;54.366;10.958;2023-11-21T04:29:29;8.10;99.90
19493;DHT22;9887;54.366;10.958;2023-11-21T04:31:57;8.10;99.90
19493;DHT22;9887;54.366;10.958;2023-11-21T04:34:25;8.10;99.90
19493;DHT22;9887;54.366;10.958;2023-11-21T04:36:54;8.10;99.90
19493;DHT22;9887;54.366;10.958;2023-11-21T04:39:22;8.10;99.90
19493;DHT22;9887;54.366;10.958;2023-11-21T04:41:50;8.10;99.90
19493;DHT22;9887;54.366;10.958;2023-11-21T04:44:18;8.10;99.90
19493;DHT22;9887;54.366;10.958;2023-11-21T04:46:46;8.10;99.90
19493;DHT22;9887;54.366;10.958;2023-11-21T04:49:14;8.10;99.90
19493;DHT22;9887;54.366;10.958;2023-11-21T04:51:42;8.10;99.90
19493;DHT22;9887;54.366;10.958;2023-11-21T04:54:11;8.10;99.90
19493;DHT22;9887;54.366;10.958;2023-11-21T04:56:39;8.10;99.90
19493;DHT22;9887;54.366;10.958;2023-11-21T04:59:07;8.10;99.90
19493;DHT22;9887;54.366;10.958;2023-11-21T05:01:35;8.10;99.90
19493;DHT22;9887;54.366;10.958;2023-11-21T05:04:04;8.00;99.90
19493;DHT22;9887;54.366;10.958;2023-11-21T05:06:32;8.00;99.90
19493;DHT22;9887;54.366;10.958;2023-11-21T05:09:00;8.00;99.90
19493;DHT22;9887;54.366;10.958;2023-11-21T05:11:29;8.00;99.90
19493;DHT22;9887;54.366;10.958;2023-11-21T05:13:58;8.00;99.90
19493;DHT22;9887;54.366;10.958;2023-11-21T05:16:28;8.00;99.90
19493;DHT22;9887;54.366;10.958;2023-11-21T05:18:56;8.00;99.90
19493;DHT22;9887;54.366;10.958;2023-11-21T05:21:27;8.00;99.90
19493;DHT22;9887;54.366;10.958;2023-11-21T05:23:56;8.00;99.90
19493;DHT22;9887;54.366;10.958;2023-11-21T05:26:24;8.00;99.90
19493;DHT22;9887;54.366;10.958;2023-11-21T05:28:53;8.00;99.90
19493;DHT22;9887;54.366;10.958;2023-11-21T05:31:22;8.00;99.90
19493;DHT22;9887;54.366;10.958;2023-11-21T05:33:50;8.00;99.90
19493;DHT22;9887;54.366;10.958;2023-11-21T05:36:18;8.00;99.90
19493;DHT22;9887;54.366;10.958;2023-11-21T05:38:45;8.00;99.90
19493;DHT22;9887;54.366;10.958;2023-11-21T05:41:13;7.90;99.90
19493;DHT22;9887;54.366;10.958;2023-11-21T05:43:42;7.90;99.90
19493;DHT22;9887;54.366;10.958;2023-11-21T05:46:11;7.90;99.90
19493;DHT22;9887;54.366;10.958;2023-11-21T05:48:40;7.90;99.90
19493;DHT22;9887;54.366;10.958;2023-11-21T05:51:09;7.90;99.90
19493;DHT22;9887;54.366;10.958;2023-11-21T05:53:39;7.90;99.90
19493;DHT22;9887;54.366;10.958;2023-11-21T05:56:07;7.90;99.90
19493;DHT22;9887;54.366;10.958;2023-11-21T05:58:35;7.90;99.90
19493;DHT22;9887;54.366;10.958;2023-11-21T06:01:05;7.90;99.90
19493;DHT22;9887;54.366;10.958;2023-11-21T06:03:37;7.90;99.90
19493;DHT22;9887;54.366;10.958;2023-11-21T06:06:06;7.90;99.90
19493;DHT22;9887;54.366;10.958;2023-11-21T06:08:34;7.90;99.90
19493;DHT22;9887;54.366;10.958;2023-11-21T06:11:02;7.90;99.90
19493;DHT22;9887;54.366;10.958;2023-11-21T06:13:31;7.90;99.90
19493;DHT22;9887;54.366;10.958;2023-11-21T06:15:59;7.90;99.90
19493;DHT22;9887;54.366;10.958;2023-11-21T06:18:27;7.90;99.90
19493;DHT22;9887;54.366;10.958;2023-11-21T06:20:57;7.80;99.90
19493;DHT22;9887;54.366;10.958;2023-11-21T06:23:27;7.80;99.90
19493;DHT22;9887;54.366;10.958;2023-11-21T06:25:55;7.80;99.90
19493;DHT22;9887;54.366;10.958;2023-11-21T06:28:25;7.80;99.90
19493;DHT22;9887;54.366;10.958;2023-11-21T06:30:53;7.80;99.90
19493;DHT22;9887;54.366;10.958;2023-11-21T06:33:22;7.80;99.90
19493;DHT22;9887;54.366;10.958;2023-11-21T06:35:50;7.80;99.90
19493;DHT22;9887;54.366;10.958;2023-11-21T06:38:19;7.80;99.90
19493;DHT22;9887;54.366;10.958;2023-11-21T06:40:48;7.80;99.90
19493;DHT22;9887;54.366;10.958;2023-11-21T06:43:16;7.80;99.90
19493;DHT22;9887;54.366;10.958;2023-11-21T06:45:44;7.80;99.90
19493;DHT22;9887;54.366;10.958;2023-11-21T06:48:12;7.80;99.90
19493;DHT22;9887;54.366;10.958;2023-11-21T06:50:40;7.80;99.90
19493;DHT22;9887;54.366;10.958;2023-11-21T06:53:08;7.80;99.90
19493;DHT22;9887;54.366;10.958;2023-11-21T06:55:38;7.80;99.90
19493;DHT22;9887;54.366;10.958;2023-11-21T06:58:06;7.70;99.90
19493;DHT22;9887;54.366;10.958;2023-11-21T07:00:36;7.70;99.90
19493;DHT22;9887;54.366;10.958;2023-11-21T07:03:06;7.70;99.90
19493;DHT22;9887;54.366;10.958;2023-11-21T07:05:34;7.70;99.90
19493;DHT22;9887;54.366;10.958;2023-11-21T07:08:01;7.70;99.90
19493;DHT22;9887;54.366;10.958;2023-11-21T07:10:31;7.70;99.90
19493;DHT22;9887;54.366;10.958;2023-11-21T07:13:01;7.70;99.90
19493;DHT22;9887;54.366;10.958;2023-11-21T07:15:28;7.70;99.90
19493;DHT22;9887;54.366;10.958;2023-11-21T07:17:56;7.70;99.90
19493;DHT22;9887;54.366;10.958;2023-11-21T07:20:25;7.70;99.90
19493;DHT22;9887;54.366;10.958;2023-11-21T07:22:53;7.70;99.90
19493;DHT22;9887;54.366;10.958;2023-11-21T07:25:22;7.70;99.90
19493;DHT22;9887;54.366;10.958;2023-11-21T07:27:51;7.70;99.90
19493;DHT22;9887;54.366;10.958;2023-11-21T07:30:21;7.70;99.90
19493;DHT22;9887;54.366;10.958;2023-11-21T07:32:50;7.70;99.90
19493;DHT22;9887;54.366;10.958;2023-11-21T07:35:18;7.70;99.90
19493;DHT22;9887;54.366;10.958;2023-11-21T07:37:47;7.70;99.90
19493;DHT22;9887;54.366;10.958;2023-11-21T07:40:15;7.70;99.90
19493;DHT22;9887;54.366;10.958;2023-11-21T07:42:43;7.70;99.90
19493;DHT22;9887;54.366;10.958;2023-11-21T07:45:11;7.70;99.90
19493;DHT22;9887;54.366;10.958;2023-11-21T07:47:41;7.70;99.90
19493;DHT22;9887;54.366;10.958;2023-11-21T07:50:10;7.70;99.90
19493;DHT22;9887;54.366;10.958;2023-11-21T07:52:40;7.70;99.90
19493;DHT22;9887;54.366;10.958;2023-11-21T07:55:08;7.70;99.90
19493;DHT22;9887;54.366;10.958;2023-11-21T07:57:35;7.70;99.90
19493;DHT22;9887;54.366;10.958;2023-11-21T08:00:05;7.70;99.90
19493;DHT22;9887;54.366;10.958;2023-11-21T08:02:39;7.70;99.90
19493;DHT22;9887;54.366;10.958;2023-11-21T08:05:10;7.70;99.90
19493;DHT22;9887;54.366;10.958;2023-11-21T08:07:50;7.70;99.90
19493;DHT22;9887;54.366;10.958;2023-11-21T08:10:18;7.70;99.90
19493;DHT22;9887;54.366;10.958;2023-11-21T08:12:48;7.70;99.90
19493;DHT22;9887;54.366;10.958;2023-11-21T08:15:18;7.70;99.90
19493;DHT22;9887;54.366;10.958;2023-11-21T08:17:46;7.70;99.90
19493;DHT22;9887;54.366;10.958;2023-11-21T08:20:17;7.70;99.90
19493;DHT22;9887;54.366;10.958;2023-11-21T08:22:45;7.70;99.90
19493;DHT22;9887;54.366;10.958;2023-11-21T08:25:15;7.70;99.90
19493;DHT22;9887;54.366;10.958;2023-11-21T08:27:46;7.70;99.90
19493;DHT22;9887;54.366;10.958;2023-11-21T08:30:14;7.70;99.90
19493;DHT22;9887;54.366;10.958;2023-11-21T08:32:44;7.70;99.90
19493;DHT22;9887;54.366;10.958;2023-11-21T08:35:13;7.70;99.90
19493;DHT22;9887;54.366;10.958;2023-11-21T08:37:44;7.70;99.90
19493;DHT22;9887;54.366;10.958;2023-11-21T08:40:13;7.70;99.90
19493;DHT22;9887;54.366;10.958;2023-11-21T08:42:43;7.80;99.90
19493;DHT22;9887;54.366;10.958;2023-11-21T08:45:13;7.80;99.90
19493;DHT22;9887;54.366;10.958;2023-11-21T08:47:40;7.80;99.90
19493;DHT22;9887;54.366;10.958;2023-11-21T08:50:11;7.80;99.90
19493;DHT22;9887;54.366;10.958;2023-11-21T08:52:40;7.80;99.90
19493;DHT22;9887;54.366;10.958;2023-11-21T08:55:11;7.80;99.90
19493;DHT22;9887;54.366;10.958;2023-11-21T08:57:41;7.80;99.90
19493;DHT22;9887;54.366;10.958;2023-11-21T09:00:12;7.80;99.90
19493;DHT22;9887;54.366;10.958;2023-11-21T09:02:42;7.80;99.90
19493;DHT22;9887;54.366;10.958;2023-11-21T09:05:11;7.80;99.90
19493;DHT22;9887;54.366;10.958;2023-11-21T09:07:41;7.80;99.90
19493;DHT22;9887;54.366;10.958;2023-11-21T09:10:11;7.80;99.90
19493;DHT22;9887;54.366;10.958;2023-11-21T09:12:39;7.80;99.90
19493;DHT22;9887;54.366;10.958;2023-11-21T09:15:08;7.80;99.90
19493;DHT22;9887;54.366;10.958;2023-11-21T09:17:39;7.80;99.90
19493;DHT22;9887;54.366;10.958;2023-11-21T09:20:09;7.80;99.90
19493;DHT22;9887;54.366;10.958;2023-11-21T09:22:38;7.80;99.90
19493;DHT22;9887;54.366;10.958;2023-11-21T09:25:06;7.80;99.90
19493;DHT22;9887;54.366;10.958;2023-11-21T09:27:37;7.80;99.90
19493;DHT22;9887;54.366;10.958;2023-11-21T09:30:07;7.80;99.90
19493;DHT22;9887;54.366;10.958;2023-11-21T09:32:38;7.80;99.90
19493;DHT22;9887;54.366;10.958;2023-11-21T09:35:08;7.80;99.90
19493;DHT22;9887;54.366;10.958;2023-11-21T09:37:36;7.80;99.90
19493;DHT22;9887;54.366;10.958;2023-11-21T09:40:09;7.80;99.90
19493;DHT22;9887;54.366;10.958;2023-11-21T09:42:50;7.80;99.90
19493;DHT22;9887;54.366;10.958;2023-11-21T09:45:24;7.80;99.90
19493;DHT22;9887;54.366;10.958;2023-11-21T09:47:54;7.80;99.90
19493;DHT22;9887;54.366;10.958;2023-11-21T09:50:23;7.80;99.90
19493;DHT22;9887;54.366;10.958;2023-11-21T09:52:57;7.80;99.90
19493;DHT22;9887;54.366;10.958;2023-11-21T09:55:28;7.80;99.90
19493;DHT22;9887;54.366;10.958;2023-11-21T09:57:58;7.80;99.90
19493;DHT22;9887;54.366;10.958;2023-11-21T10:00:27;7.80;99.90
19493;DHT22;9887;54.366;10.958;2023-11-21T10:02:59;7.80;99.90
19493;DHT22;9887;54.366;10.958;2023-11-21T10:05:29;7.80;99.90
19493;DHT22;9887;54.366;10.958;2023-11-21T10:08:01;7.80;99.90
19493;DHT22;9887;54.366;10.958;2023-11-21T10:10:30;7.80;99.90
19493;DHT22;9887;54.366;10.958;2023-11-21T10:13:03;7.80;99.90
19493;DHT22;9887;54.366;10.958;2023-11-21T10:15:34;7.80;99.90
19493;DHT22;9887;54.366;10.958;2023-11-21T10:18:03;7.90;99.90
19493;DHT22;9887;54.366;10.958;2023-11-21T10:20:33;7.90;99.90
19493;DHT22;9887;54.366;10.958;2023-11-21T10:23:01;7.90;99.90
19493;DHT22;9887;54.366;10.958;2023-11-21T10:25:31;7.90;99.90
19493;DHT22;9887;54.366;10.958;2023-11-21T10:28:03;7.90;99.90
19493;DHT22;9887;54.366;10.958;2023-11-21T10:30:36;7.90;99.90
19493;DHT22;9887;54.366;10.958;2023-11-21T10:33:06;7.90;99.90
19493;DHT22;9887;54.366;10.958;2023-11-21T10:35:44;7.90;99.90
19493;DHT22;9887;54.366;10.958;2023-11-21T10:38:18;7.90;99.90
19493;DHT22;9887;54.366;10.958;2023-11-21T10:40:48;7.90;99.90
19493;DHT22;9887;54.366;10.958;2023-11-21T10:43:18;7.90;99.90
19493;DHT22;9887;54.366;10.958;2023-11-21T10:45:46;7.90;99.90
19493;DHT22;9887;54.366;10.958;2023-11-21T10:48:15;7.90;99.90
19493;DHT22;9887;54.366;10.958;2023-11-21T10:50:44;7.90;99.90
19493;DHT22;9887;54.366;10.958;2023-11-21T10:53:12;7.90;99.90
19493;DHT22;9887;54.366;10.958;2023-11-21T10:55:42;7.90;99.90
19493;DHT22;9887;54.366;10.958;2023-11-21T10:58:13;7.90;99.90
19493;DHT22;9887;54.366;10.958;2023-11-21T11:00:44;7.90;99.90
19493;DHT22;9887;54.366;10.958;2023-11-21T11:03:13;7.90;99.90
19493;DHT22;9887;54.366;10.958;2023-11-21T11:05:44;7.90;99.90
19493;DHT22;9887;54.366;10.958;2023-11-21T11:08:21;7.90;99.90
19493;DHT22;9887;54.366;10.958;2023-11-21T11:10:54;7.90;99.90
19493;DHT22;9887;54.366;10.958;2023-11-21T11:13:23;7.90;99.90
19493;DHT22;9887;54.366;10.958;2023-11-21T11:15:58;7.90;99.90
19493;DHT22;9887;54.366;10.958;2023-11-21T11:18:27;7.90;99.90
19493;DHT22;9887;54.366;10.958;2023-11-21T11:21:01;7.90;99.90
19493;DHT22;9887;54.366;10.958;2023-11-21T11:23:46;7.90;99.90
19493;DHT22;9887;54.366;10.958;2023-11-21T11:26:29;7.90;99.90
19493;DHT22;9887;54.366;10.958;2023-11-21T11:29:07;7.90;99.90
19493;DHT22;9887;54.366;10.958;2023-11-21T11:31:50;7.90;99.90
19493;DHT22;9887;54.366;10.958;2023-11-21T11:34:26;7.90;99.90
19493;DHT22;9887;54.366;10.958;2023-11-21T11:36:58;7.90;99.90
19493;DHT22;9887;54.366;10.958;2023-11-21T11:39:30;7.90;99.90
19493;DHT22;9887;54.366;10.958;2023-11-21T11:41:59;7.90;99.90
19493;DHT22;9887;54.366;10.958;2023-11-21T11:44:50;7.90;99.90
19493;DHT22;9887;54.366;10.958;2023-11-21T11:47:24;7.90;99.90
19493;DHT22;9887;54.366;10.958;2023-11-21T11:50:01;7.90;99.90
19493;DHT22;9887;54.366;10.958;2023-11-21T11:52:36;7.90;99.90
19493;DHT22;9887;54.366;10.958;2023-11-21T11:55:08;7.90;99.90
19493;DHT22;9887;54.366;10.958;2023-11-21T11:57:38;7.80;99.90
19493;DHT22;9887;54.366;10.958;2023-11-21T12:00:15;7.80;99.90
19493;DHT22;9887;54.366;10.958;2023-11-21T12:02:47;7.80;99.90
19493;DHT22;9887;54.366;10.958;2023-11-21T12:05:18;7.90;99.90
19493;DHT22;9887;54.366;10.958;2023-11-21T12:07:48;7.80;99.90
19493;DHT22;9887;54.366;10.958;2023-11-21T12:10:19;7.80;99.90
19493;DHT22;9887;54.366;10.958;2023-11-21T12:12:48;7.80;99.90
19493;DHT22;9887;54.366;10.958;2023-11-21T12:15:16;7.80;99.90
19493;DHT22;9887;54.366;10.958;2023-11-21T12:17:46;7.80;99.90
19493;DHT22;9887;54.366;10.958;2023-11-21T12:20:15;7.80;99.90
19493;DHT22;9887;54.366;10.958;2023-11-21T12:22:45;7.80;99.90
19493;DHT22;9887;54.366;10.958;2023-11-21T12:25:16;7.80;99.90
19493;DHT22;9887;54.366;10.958;2023-11-21T12:27:46;7.80;99.90
19493;DHT22;9887;54.366;10.958;2023-11-21T12:30:17;7.80;99.90
19493;DHT22;9887;54.366;10.958;2023-11-21T12:32:48;7.80;99.90
19493;DHT22;9887;54.366;10.958;2023-11-21T12:35:18;7.90;99.90
19493;DHT22;9887;54.366;10.958;2023-11-21T12:37:48;7.80;99.90
19493;DHT22;9887;54.366;10.958;2023-11-21T12:40:19;7.80;99.90
19493;DHT22;9887;54.366;10.958;2023-11-21T12:42:53;7.80;99.90
19493;DHT22;9887;54.366;10.958;2023-11-21T12:45:22;7.80;99.90
19493;DHT22;9887;54.366;10.958;2023-11-21T12:47:56;7.80;99.90
19493;DHT22;9887;54.366;10.958;2023-11-21T12:50:28;7.80;99.90
19493;DHT22;9887;54.366;10.958;2023-11-21T12:53:00;7.80;99.90
19493;DHT22;9887;54.366;10.958;2023-11-21T12:55:31;7.80;99.90
19493;DHT22;9887;54.366;10.958;2023-11-21T12:58:01;7.80;99.90
19493;DHT22;9887;54.366;10.958;2023-11-21T13:00:38;7.80;99.90
19493;DHT22;9887;54.366;10.958;2023-11-21T13:03:10;7.80;99.90
19493;DHT22;9887;54.366;10.958;2023-11-21T13:05:40;7.70;99.90
19493;DHT22;9887;54.366;10.958;2023-11-21T13:08:14;7.70;99.90
19493;DHT22;9887;54.366;10.958;2023-11-21T13:10:49;7.70;99.90
19493;DHT22;9887;54.366;10.958;2023-11-21T13:13:18;7.70;99.90
19493;DHT22;9887;54.366;10.958;2023-11-21T13:15:51;7.70;99.90
19493;DHT22;9887;54.366;10.958;2023-11-21T13:18:22;7.70;99.90
19493;DHT22;9887;54.366;10.958;2023-11-21T13:20:50;7.70;99.90
19493;DHT22;9887;54.366;10.958;2023-11-21T13:23:21;7.70;99.90
19493;DHT22;9887;54.366;10.958;2023-11-21T13:25:49;7.70;99.90
19493;DHT22;9887;54.366;10.958;2023-11-21T13:28:28;7.70;99.90
19493;DHT22;9887;54.366;10.958;2023-11-21T13:31:00;7.70;99.90
19493;DHT22;9887;54.366;10.958;2023-11-21T13:33:39;7.70;99.90
19493;DHT22;9887;54.366;10.958;2023-11-21T13:36:10;7.70;99.90
19493;DHT22;9887;54.366;10.958;2023-11-21T13:38:40;7.70;99.90
19493;DHT22;9887;54.366;10.958;2023-11-21T13:41:10;7.70;99.90
19493;DHT22;9887;54.366;10.958;2023-11-21T13:43:41;7.70;99.90
19493;DHT22;9887;54.366;10.958;2023-11-21T13:46:14;7.70;99.90
19493;DHT22;9887;54.366;10.958;2023-11-21T13:48:50;7.70;99.90
19493;DHT22;9887;54.366;10.958;2023-11-21T13:51:22;7.70;99.90
19493;DHT22;9887;54.366;10.958;2023-11-21T13:53:58;7.60;99.90
19493;DHT22;9887;54.366;10.958;2023-11-21T13:56:27;7.60;99.90
19493;DHT22;9887;54.366;10.958;2023-11-21T13:58:56;7.60;99.90
19493;DHT22;9887;54.366;10.958;2023-11-21T14:01:26;7.60;99.90
19493;DHT22;9887;54.366;10.958;2023-11-21T14:04:15;7.60;99.90
19493;DHT22;9887;54.366;10.958;2023-11-21T14:06:58;7.60;99.90
19493;DHT22;9887;54.366;10.958;2023-11-21T14:09:33;7.50;99.90
19493;DHT22;9887;54.366;10.958;2023-11-21T14:12:10;7.50;99.90
19493;DHT22;9887;54.366;10.958;2023-11-21T14:14:40;7.50;99.90
19493;DHT22;9887;54.366;10.958;2023-11-21T14:17:07;7.50;99.90
19493;DHT22;9887;54.366;10.958;2023-11-21T14:19:38;7.50;99.90
19493;DHT22;9887;54.366;10.958;2023-11-21T14:22:10;7.50;99.90
19493;DHT22;9887;54.366;10.958;2023-11-21T14:24:38;7.50;99.90
19493;DHT22;9887;54.366;10.958;2023-11-21T14:27:10;7.40;99.90
19493;DHT22;9887;54.366;10.958;2023-11-21T14:29:39;7.40;99.90
19493;DHT22;9887;54.366;10.958;2023-11-21T14:32:10;7.40;99.90
19493;DHT22;9887;54.366;10.958;2023-11-21T14:34:39;7.40;99.90
19493;DHT22;9887;54.366;10.958;2023-11-21T14:37:10;7.40;99.90
19493;DHT22;9887;54.366;10.958;2023-11-21T14:39:40;7.40;99.90
19493;DHT22;9887;54.366;10.958;2023-11-21T14:42:11;7.40;99.90
19493;DHT22;9887;54.366;10.958;2023-11-21T14:44:42;7.30;99.90
19493;DHT22;9887;54.366;10.958;2023-11-21T14:47:09;7.30;99.90
19493;DHT22;9887;54.366;10.958;2023-11-21T14:49:47;7.30;99.90
19493;DHT22;9887;54.366;10.958;2023-11-21T14:52:23;7.30;99.90
19493;DHT22;9887;54.366;10.958;2023-11-21T14:55:00;7.30;99.90
19493;DHT22;9887;54.366;10.958;2023-11-21T14:57:42;7.30;99.90
19493;DHT22;9887;54.366;10.958;2023-11-21T15:00:16;7.20;99.90
19493;DHT22;9887;54.366;10.958;2023-11-21T15:03:05;7.20;99.90
19493;DHT22;9887;54.366;10.958;2023-11-21T15:05:35;7.20;99.90
19493;DHT22;9887;54.366;10.958;2023-11-21T15:08:02;7.20;99.90
19493;DHT22;9887;54.366;10.958;2023-11-21T15:10:47;7.20;99.90
19493;DHT22;9887;54.366;10.958;2023-11-21T15:13:20;7.20;99.90
19493;DHT22;9887;54.366;10.958;2023-11-21T15:15:50;7.20;99.90
19493;DHT22;9887;54.366;10.958;2023-11-21T15:18:19;7.20;99.90
19493;DHT22;9887;54.366;10.958;2023-11-21T15:20:48;7.10;99.90
19493;DHT22;9887;54.366;10.958;2023-11-21T15:23:16;7.10;99.90
19493;DHT22;9887;54.366;10.958;2023-11-21T15:25:45;7.10;99.90
19493;DHT22;9887;54.366;10.958;2023-11-21T15:28:13;7.10;99.90
19493;DHT22;9887;54.366;10.958;2023-11-21T15:30:41;7.10;99.90
19493;DHT22;9887;54.366;10.958;2023-11-21T15:33:11;7.10;99.90
19493;DHT22;9887;54.366;10.958;2023-11-21T15:35:38;7.10;99.90
19493;DHT22;9887;54.366;10.958;2023-11-21T15:38:10;7.10;99.90
19493;DHT22;9887;54.366;10.958;2023-11-21T15:40:40;7.10;99.90
19493;DHT22;9887;54.366;10.958;2023-11-21T15:43:10;7.10;99.90
19493;DHT22;9887;54.366;10.958;2023-11-21T15:45:38;7.10;99.90
19493;DHT22;9887;54.366;10.958;2023-11-21T15:48:06;7.10;99.90
19493;DHT22;9887;54.366;10.958;2023-11-21T15:50:35;7.10;99.90
19493;DHT22;9887;54.366;10.958;2023-11-21T15:53:03;7.00;99.90
19493;DHT22;9887;54.366;10.958;2023-11-21T15:55:33;7.00;99.90
19493;DHT22;9887;54.366;10.958;2023-11-21T15:58:02;7.00;99.90
19493;DHT22;9887;54.366;10.958;2023-11-21T16:00:34;7.00;99.90
19493;DHT22;9887;54.366;10.958;2023-11-21T16:03:05;7.00;99.90
19493;DHT22;9887;54.366;10.958;2023-11-21T16:05:33;7.00;99.90